Terminal Aerodrome Forecast
Issued by NWS North Platte, NE

Home | Current Version | Previous Version | Text Only | Print | Product List | Glossary On
Versions: 1 2 3 4 5 6 7 8 9 10 11 12 13 14 15 16 17 18 19 20 21 22 23
000
FTUS43 KLBF 242331
TAFLBF
TAF
KLBF 242331Z 2500/2524 35014G21KT P6SM OVC020
     FM250300 34011G17KT P6SM VCSH OVC015
     FM250900 34011G17KT P6SM OVC015
     FM251100 34008KT P6SM BKN030
     FM251400 34008KT P6SM SCT040
     FM251700 33008KT P6SM FEW250
     FM252200 27005KT P6SM SKC=

USA.gov is the U.S. government's official web portal to all federal, state and local government web resources and services.